sensor_id;sensor_type;location;lat;lon;timestamp;pressure;altitude;pressure_sealevel;temperature;humidity
71145;BME280;58812;47.698;17.726;2023-11-19T00:00:19;100777.13;;;-0.01;100.00
71145;BME280;58812;47.698;17.726;2023-11-19T00:02:44;100781.72;;;-0.06;100.00
71145;BME280;58812;47.698;17.726;2023-11-19T00:05:10;100787.88;;;-0.06;100.00
71145;BME280;58812;47.698;17.726;2023-11-19T00:07:39;100785.81;;;0.01;100.00
71145;BME280;58812;47.698;17.726;2023-11-19T00:10:12;100795.81;;;-0.07;100.00
71145;BME280;58812;47.698;17.726;2023-11-19T00:12:40;100792.72;;;-0.17;100.00
71145;BME280;58812;47.698;17.726;2023-11-19T00:15:06;100791.72;;;-0.14;100.00
71145;BME280;58812;47.698;17.726;2023-11-19T00:17:39;100794.88;;;-0.06;100.00
71145;BME280;58812;47.698;17.726;2023-11-19T00:20:10;100750.38;;;-0.11;100.00
71145;BME280;58812;47.698;17.726;2023-11-19T00:22:36;100771.00;;;-0.02;100.00
71145;BME280;58812;47.698;17.726;2023-11-19T00:25:01;100771.72;;;0.02;100.00
71145;BME280;58812;47.698;17.726;2023-11-19T00:27:28;100773.38;;;0.05;100.00
71145;BME280;58812;47.698;17.726;2023-11-19T00:29:53;100779.75;;;-0.01;100.00
71145;BME280;58812;47.698;17.726;2023-11-19T00:32:19;100790.09;;;0.04;100.00
71145;BME280;58812;47.698;17.726;2023-11-19T00:34:44;100777.38;;;0.13;100.00
71145;BME280;58812;47.698;17.726;2023-11-19T00:37:10;100777.88;;;0.21;100.00
71145;BME280;58812;47.698;17.726;2023-11-19T00:39:35;100763.50;;;0.29;100.00
71145;BME280;58812;47.698;17.726;2023-11-19T00:42:01;100756.53;;;0.28;100.00
71145;BME280;58812;47.698;17.726;2023-11-19T00:44:26;100744.31;;;0.26;100.00
71145;BME280;58812;47.698;17.726;2023-11-19T00:46:51;100749.41;;;0.30;100.00
71145;BME280;58812;47.698;17.726;2023-11-19T00:49:17;100751.28;;;0.28;100.00
71145;BME280;58812;47.698;17.726;2023-11-19T00:51:42;100760.56;;;0.36;100.00
71145;BME280;58812;47.698;17.726;2023-11-19T00:54:08;100756.53;;;0.28;100.00
71145;BME280;58812;47.698;17.726;2023-11-19T00:56:33;100749.37;;;0.31;100.00
71145;BME280;58812;47.698;17.726;2023-11-19T00:58:58;100737.47;;;0.41;100.00
71145;BME280;58812;47.698;17.726;2023-11-19T01:01:25;100720.81;;;0.41;100.00
71145;BME280;58812;47.698;17.726;2023-11-19T01:03:51;100732.37;;;0.38;100.00
71145;BME280;58812;47.698;17.726;2023-11-19T01:06:27;100734.84;;;0.41;100.00
71145;BME280;58812;47.698;17.726;2023-11-19T01:08:52;100725.03;;;0.45;100.00
71145;BME280;58812;47.698;17.726;2023-11-19T01:11:21;100743.19;;;0.51;100.00
71145;BME280;58812;47.698;17.726;2023-11-19T01:13:47;100735.94;;;0.56;100.00
71145;BME280;58812;47.698;17.726;2023-11-19T01:16:13;100731.72;;;0.52;100.00
71145;BME280;58812;47.698;17.726;2023-11-19T01:18:38;100732.81;;;0.48;100.00
71145;BME280;58812;47.698;17.726;2023-11-19T01:21:04;100725.81;;;0.47;100.00
71145;BME280;58812;47.698;17.726;2023-11-19T01:23:30;100725.03;;;0.45;100.00
71145;BME280;58812;47.698;17.726;2023-11-19T01:25:55;100725.69;;;0.50;100.00
71145;BME280;58812;47.698;17.726;2023-11-19T01:28:21;100724.91;;;0.48;100.00
71145;BME280;58812;47.698;17.726;2023-11-19T01:30:46;100718.84;;;0.46;100.00
71145;BME280;58812;47.698;17.726;2023-11-19T01:33:11;100719.28;;;0.37;100.00
71145;BME280;58812;47.698;17.726;2023-11-19T01:35:37;100720.47;;;0.30;100.00
71145;BME280;58812;47.698;17.726;2023-11-19T01:38:02;100708.50;;;0.22;100.00
71145;BME280;58812;47.698;17.726;2023-11-19T01:40:28;100708.16;;;0.30;100.00
71145;BME280;58812;47.698;17.726;2023-11-19T01:42:53;100715.34;;;0.26;100.00
71145;BME280;58812;47.698;17.726;2023-11-19T01:45:30;100710.16;;;0.25;100.00
71145;BME280;58812;47.698;17.726;2023-11-19T01:48:00;100709.66;;;0.36;100.00
71145;BME280;58812;47.698;17.726;2023-11-19T01:50:29;100710.00;;;0.47;100.00
71145;BME280;58812;47.698;17.726;2023-11-19T01:52:55;100702.44;;;0.58;100.00
71145;BME280;58812;47.698;17.726;2023-11-19T01:55:24;100696.75;;;0.67;100.00
71145;BME280;58812;47.698;17.726;2023-11-19T01:57:51;100701.25;;;0.65;100.00
71145;BME280;58812;47.698;17.726;2023-11-19T02:00:18;100698.34;;;0.71;100.00
71145;BME280;58812;47.698;17.726;2023-11-19T02:02:46;100696.47;;;0.73;100.00
71145;BME280;58812;47.698;17.726;2023-11-19T02:05:11;100687.41;;;0.79;100.00
71145;BME280;58812;47.698;17.726;2023-11-19T02:07:38;100697.87;;;0.80;100.00
71145;BME280;58812;47.698;17.726;2023-11-19T02:10:04;100700.88;;;0.73;100.00
71145;BME280;58812;47.698;17.726;2023-11-19T02:12:31;100695.75;;;0.70;100.00
71145;BME280;58812;47.698;17.726;2023-11-19T02:15:01;100684.34;;;0.69;100.00
71145;BME280;58812;47.698;17.726;2023-11-19T02:17:31;100685.47;;;0.83;100.00
71145;BME280;58812;47.698;17.726;2023-11-19T02:19:57;100675.84;;;0.82;100.00
71145;BME280;58812;47.698;17.726;2023-11-19T02:22:23;100683.75;;;0.82;100.00
71145;BME280;58812;47.698;17.726;2023-11-19T02:24:52;100673.09;;;0.85;100.00
71145;BME280;58812;47.698;17.726;2023-11-19T02:27:46;100669.50;;;0.86;100.00
71145;BME280;58812;47.698;17.726;2023-11-19T02:30:16;100667.72;;;0.86;100.00
71145;BME280;58812;47.698;17.726;2023-11-19T02:32:42;100659.53;;;0.92;100.00
71145;BME280;58812;47.698;17.726;2023-11-19T02:35:07;100663.09;;;0.91;100.00
71145;BME280;58812;47.698;17.726;2023-11-19T02:37:34;100658.66;;;0.92;100.00
71145;BME280;58812;47.698;17.726;2023-11-19T02:39:59;100650.37;;;0.99;100.00
71145;BME280;58812;47.698;17.726;2023-11-19T02:42:28;100654.66;;;1.02;100.00
71145;BME280;58812;47.698;17.726;2023-11-19T02:44:53;100654.56;;;1.03;100.00
71145;BME280;58812;47.698;17.726;2023-11-19T02:47:19;100657.91;;;1.07;100.00
71145;BME280;58812;47.698;17.726;2023-11-19T02:49:49;100645.34;;;1.12;100.00
71145;BME280;58812;47.698;17.726;2023-11-19T02:52:14;100642.66;;;1.14;100.00
71145;BME280;58812;47.698;17.726;2023-11-19T02:54:40;100647.91;;;1.14;100.00
71145;BME280;58812;47.698;17.726;2023-11-19T02:57:06;100635.03;;;1.25;100.00
71145;BME280;58812;47.698;17.726;2023-11-19T02:59:35;100628.44;;;1.33;100.00
71145;BME280;58812;47.698;17.726;2023-11-19T03:02:08;100633.72;;;1.33;100.00
71145;BME280;58812;47.698;17.726;2023-11-19T03:04:37;100626.09;;;1.27;100.00
71145;BME280;58812;47.698;17.726;2023-11-19T03:07:05;100628.97;;;1.23;100.00
71145;BME280;58812;47.698;17.726;2023-11-19T03:09:30;100629.91;;;1.22;100.00
71145;BME280;58812;47.698;17.726;2023-11-19T03:11:55;100629.06;;;1.21;100.00
71145;BME280;58812;47.698;17.726;2023-11-19T03:14:21;100617.97;;;1.32;100.00
71145;BME280;58812;47.698;17.726;2023-11-19T03:16:48;100619.44;;;1.38;100.00
71145;BME280;58812;47.698;17.726;2023-11-19T03:19:13;100621.66;;;1.45;100.00
71145;BME280;58812;47.698;17.726;2023-11-19T03:21:38;100604.50;;;1.54;100.00
71145;BME280;58812;47.698;17.726;2023-11-19T03:24:04;100592.41;;;1.50;100.00
71145;BME280;58812;47.698;17.726;2023-11-19T03:26:29;100581.25;;;1.45;100.00
71145;BME280;58812;47.698;17.726;2023-11-19T03:28:55;100580.63;;;1.40;100.00
71145;BME280;58812;47.698;17.726;2023-11-19T03:31:22;100567.34;;;1.25;100.00
71145;BME280;58812;47.698;17.726;2023-11-19T03:33:48;100567.34;;;1.25;100.00
71145;BME280;58812;47.698;17.726;2023-11-19T03:36:13;100560.72;;;1.34;100.00
71145;BME280;58812;47.698;17.726;2023-11-19T03:38:39;100557.97;;;1.36;100.00
71145;BME280;58812;47.698;17.726;2023-11-19T03:41:11;100556.13;;;1.38;100.00
71145;BME280;58812;47.698;17.726;2023-11-19T03:43:37;100544.50;;;1.24;100.00
71145;BME280;58812;47.698;17.726;2023-11-19T03:46:02;100555.53;;;1.15;100.00
71145;BME280;58812;47.698;17.726;2023-11-19T03:48:27;100557.88;;;1.04;100.00
71145;BME280;58812;47.698;17.726;2023-11-19T03:50:53;100560.84;;;0.98;100.00
71145;BME280;58812;47.698;17.726;2023-11-19T03:53:18;100561.91;;;0.94;100.00
71145;BME280;58812;47.698;17.726;2023-11-19T03:55:44;100561.44;;;1.03;100.00
71145;BME280;58812;47.698;17.726;2023-11-19T03:58:09;100556.84;;;1.06;100.00
71145;BME280;58812;47.698;17.726;2023-11-19T04:00:34;100556.09;;;1.04;100.00
71145;BME280;58812;47.698;17.726;2023-11-19T04:03:00;100554.94;;;1.10;100.00
71145;BME280;58812;47.698;17.726;2023-11-19T04:05:25;100550.72;;;1.06;100.00
71145;BME280;58812;47.698;17.726;2023-11-19T04:07:51;100543.62;;;1.08;100.00
71145;BME280;58812;47.698;17.726;2023-11-19T04:10:16;100545.31;;;1.09;100.00
71145;BME280;58812;47.698;17.726;2023-11-19T04:12:42;100534.91;;;1.06;100.00
71145;BME280;58812;47.698;17.726;2023-11-19T04:15:08;100531.38;;;1.07;100.00
71145;BME280;58812;47.698;17.726;2023-11-19T04:17:33;100537.50;;;1.08;100.00
71145;BME280;58812;47.698;17.726;2023-11-19T04:19:59;100547.09;;;1.09;100.00
71145;BME280;58812;47.698;17.726;2023-11-19T04:22:24;100538.97;;;1.13;100.00
71145;BME280;58812;47.698;17.726;2023-11-19T04:24:50;100538.34;;;1.08;100.00
71145;BME280;58812;47.698;17.726;2023-11-19T04:27:15;100534.78;;;1.09;100.00
71145;BME280;58812;47.698;17.726;2023-11-19T04:29:40;100534.44;;;1.15;100.00
71145;BME280;58812;47.698;17.726;2023-11-19T04:32:06;100533.38;;;1.19;100.00
71145;BME280;58812;47.698;17.726;2023-11-19T04:34:32;100534.28;;;1.18;100.00
71145;BME280;58812;47.698;17.726;2023-11-19T04:36:57;100534.12;;;1.21;100.00
71145;BME280;58812;47.698;17.726;2023-11-19T04:39:26;100543.75;;;1.22;100.00
71145;BME280;58812;47.698;17.726;2023-11-19T04:41:54;100539.69;;;1.32;100.00
71145;BME280;58812;47.698;17.726;2023-11-19T04:44:20;100533.34;;;1.37;100.00
71145;BME280;58812;47.698;17.726;2023-11-19T04:46:46;100540.31;;;1.38;100.00
71145;BME280;58812;47.698;17.726;2023-11-19T04:49:13;100538.28;;;1.43;100.00
71145;BME280;58812;47.698;17.726;2023-11-19T04:51:43;100539.03;;;1.45;100.00
71145;BME280;58812;47.698;17.726;2023-11-19T04:54:09;100540.75;;;1.46;100.00
71145;BME280;58812;47.698;17.726;2023-11-19T04:56:45;100519.53;;;1.47;100.00
71145;BME280;58812;47.698;17.726;2023-11-19T04:59:10;100520.38;;;1.48;100.00
71145;BME280;58812;47.698;17.726;2023-11-19T05:01:36;100516.25;;;1.44;100.00
71145;BME280;58812;47.698;17.726;2023-11-19T05:04:01;100507.06;;;1.51;100.00
71145;BME280;58812;47.698;17.726;2023-11-19T05:06:28;100513.09;;;1.53;100.00
71145;BME280;58812;47.698;17.726;2023-11-19T05:08:54;100503.31;;;1.55;100.00
71145;BME280;58812;47.698;17.726;2023-11-19T05:11:20;100497.44;;;1.50;100.00
71145;BME280;58812;47.698;17.726;2023-11-19T05:13:45;100502.53;;;1.53;100.00
71145;BME280;58812;47.698;17.726;2023-11-19T05:16:11;100497.25;;;1.53;99.97
71145;BME280;58812;47.698;17.726;2023-11-19T05:18:39;100496.41;;;1.52;100.00
71145;BME280;58812;47.698;17.726;2023-11-19T05:21:05;100499.84;;;1.54;99.68
71145;BME280;58812;47.698;17.726;2023-11-19T05:23:32;100492.69;;;1.56;99.81
71145;BME280;58812;47.698;17.726;2023-11-19T05:25:59;100492.69;;;1.56;99.78
71145;BME280;58812;47.698;17.726;2023-11-19T05:28:24;100480.09;;;1.62;99.61
71145;BME280;58812;47.698;17.726;2023-11-19T05:30:51;100482.28;;;1.69;99.39
71145;BME280;58812;47.698;17.726;2023-11-19T05:33:16;100485.63;;;1.73;99.29
71145;BME280;58812;47.698;17.726;2023-11-19T05:35:42;100486.38;;;1.75;98.96
71145;BME280;58812;47.698;17.726;2023-11-19T05:38:07;100485.19;;;1.80;98.73
71145;BME280;58812;47.698;17.726;2023-11-19T05:40:32;100492.00;;;1.84;98.77
71145;BME280;58812;47.698;17.726;2023-11-19T05:42:58;100489.03;;;1.91;98.94
71145;BME280;58812;47.698;17.726;2023-11-19T05:45:23;100497.53;;;1.96;98.68
71145;BME280;58812;47.698;17.726;2023-11-19T05:47:49;100488.34;;;2.03;98.85
71145;BME280;58812;47.698;17.726;2023-11-19T05:50:14;100481.25;;;2.03;98.64
71145;BME280;58812;47.698;17.726;2023-11-19T05:52:39;100479.72;;;1.99;98.84
71145;BME280;58812;47.698;17.726;2023-11-19T05:55:05;100478.63;;;2.03;98.77
71145;BME280;58812;47.698;17.726;2023-11-19T05:57:35;100477.78;;;2.03;98.78
71145;BME280;58812;47.698;17.726;2023-11-19T06:00:00;100478.13;;;1.97;98.87
71145;BME280;58812;47.698;17.726;2023-11-19T06:02:26;100472.84;;;1.97;99.32
71145;BME280;58812;47.698;17.726;2023-11-19T06:04:53;100469.34;;;1.96;99.40
71145;BME280;58812;47.698;17.726;2023-11-19T06:07:18;100466.97;;;1.92;99.89
71145;BME280;58812;47.698;17.726;2023-11-19T06:09:43;100461.19;;;1.85;100.00
71145;BME280;58812;47.698;17.726;2023-11-19T06:12:09;100455.41;;;1.78;100.00
71145;BME280;58812;47.698;17.726;2023-11-19T06:14:34;100453.69;;;1.77;100.00
71145;BME280;58812;47.698;17.726;2023-11-19T06:17:00;100452.16;;;1.73;100.00
71145;BME280;58812;47.698;17.726;2023-11-19T06:19:25;100449.59;;;1.72;100.00
71145;BME280;58812;47.698;17.726;2023-11-19T06:21:50;100440.25;;;1.66;100.00
71145;BME280;58812;47.698;17.726;2023-11-19T06:24:16;100439.03;;;1.72;100.00
71145;BME280;58812;47.698;17.726;2023-11-19T06:26:41;100434.78;;;1.69;100.00
71145;BME280;58812;47.698;17.726;2023-11-19T06:29:07;100435.12;;;1.63;100.00
71145;BME280;58812;47.698;17.726;2023-11-19T06:31:32;100428.91;;;1.64;100.00
71145;BME280;58812;47.698;17.726;2023-11-19T06:33:58;100431.56;;;1.64;100.00
71145;BME280;58812;47.698;17.726;2023-11-19T06:36:23;100430.81;;;1.62;100.00
71145;BME280;58812;47.698;17.726;2023-11-19T06:38:48;100424.72;;;1.60;100.00
71145;BME280;58812;47.698;17.726;2023-11-19T06:41:14;100429.44;;;1.55;100.00
71145;BME280;58812;47.698;17.726;2023-11-19T06:43:39;100436.41;;;1.56;100.00
71145;BME280;58812;47.698;17.726;2023-11-19T06:46:04;100439.06;;;1.56;100.00
71145;BME280;58812;47.698;17.726;2023-11-19T06:48:32;100439.38;;;1.66;100.00
71145;BME280;58812;47.698;17.726;2023-11-19T06:50:58;100433.59;;;1.59;100.00
71145;BME280;58812;47.698;17.726;2023-11-19T06:53:23;100424.59;;;1.63;100.00
71145;BME280;58812;47.698;17.726;2023-11-19T06:55:48;100421.69;;;1.52;100.00
71145;BME280;58812;47.698;17.726;2023-11-19T06:58:14;100423.56;;;1.50;100.00
71145;BME280;58812;47.698;17.726;2023-11-19T07:00:39;100423.22;;;1.56;100.00
71145;BME280;58812;47.698;17.726;2023-11-19T07:03:04;100429.34;;;1.56;100.00
71145;BME280;58812;47.698;17.726;2023-11-19T07:05:36;100429.16;;;1.59;100.00
71145;BME280;58812;47.698;17.726;2023-11-19T07:08:03;100433.44;;;1.62;100.00
71145;BME280;58812;47.698;17.726;2023-11-19T07:10:29;100430.56;;;1.67;100.00
71145;BME280;58812;47.698;17.726;2023-11-19T07:12:55;100432.66;;;1.60;100.00
71145;BME280;58812;47.698;17.726;2023-11-19T07:15:21;100434.03;;;1.67;100.00
71145;BME280;58812;47.698;17.726;2023-11-19T07:17:46;100431.41;;;1.67;100.00
71145;BME280;58812;47.698;17.726;2023-11-19T07:20:13;100438.03;;;1.74;100.00
71145;BME280;58812;47.698;17.726;2023-11-19T07:22:43;100435.12;;;1.79;100.00
71145;BME280;58812;47.698;17.726;2023-11-19T07:25:08;100432.81;;;1.88;100.00
71145;BME280;58812;47.698;17.726;2023-11-19T07:27:34;100432.47;;;1.95;100.00
71145;BME280;58812;47.698;17.726;2023-11-19T07:29:59;100432.88;;;2.03;100.00
71145;BME280;58812;47.698;17.726;2023-11-19T07:32:24;100434.94;;;1.98;100.00
71145;BME280;58812;47.698;17.726;2023-11-19T07:34:50;100432.22;;;1.83;100.00
71145;BME280;58812;47.698;17.726;2023-11-19T07:37:15;100430.34;;;1.85;100.00
71145;BME280;58812;47.698;17.726;2023-11-19T07:39:43;100427.75;;;2.00;100.00
71145;BME280;58812;47.698;17.726;2023-11-19T07:42:09;100432.03;;;2.02;100.00
71145;BME280;58812;47.698;17.726;2023-11-19T07:44:34;100417.66;;;1.92;100.00
71145;BME280;58812;47.698;17.726;2023-11-19T07:47:00;100400.16;;;2.05;100.00
71145;BME280;58812;47.698;17.726;2023-11-19T07:49:25;100385.28;;;2.19;100.00
71145;BME280;58812;47.698;17.726;2023-11-19T07:51:51;100363.72;;;2.26;100.00
71145;BME280;58812;47.698;17.726;2023-11-19T07:54:17;100360.97;;;2.13;100.00
71145;BME280;58812;47.698;17.726;2023-11-19T07:56:42;100343.88;;;2.19;100.00
71145;BME280;58812;47.698;17.726;2023-11-19T07:59:07;100333.25;;;2.35;100.00
71145;BME280;58812;47.698;17.726;2023-11-19T08:01:33;100348.63;;;2.42;100.00
71145;BME280;58812;47.698;17.726;2023-11-19T08:03:58;100362.91;;;2.40;100.00
71145;BME280;58812;47.698;17.726;2023-11-19T08:06:24;100358.84;;;2.49;100.00
71145;BME280;58812;47.698;17.726;2023-11-19T08:08:49;100357.91;;;2.50;100.00
71145;BME280;58812;47.698;17.726;2023-11-19T08:11:15;100363.38;;;2.47;100.00
71145;BME280;58812;47.698;17.726;2023-11-19T08:13:40;100351.69;;;2.51;100.00
71145;BME280;58812;47.698;17.726;2023-11-19T08:16:07;100324.47;;;2.49;100.00
71145;BME280;58812;47.698;17.726;2023-11-19T08:18:32;100332.25;;;2.52;100.00
71145;BME280;58812;47.698;17.726;2023-11-19T08:20:58;100334.34;;;2.61;100.00
71145;BME280;58812;47.698;17.726;2023-11-19T08:23:24;100313.72;;;2.66;100.00
71145;BME280;58812;47.698;17.726;2023-11-19T08:25:51;100317.72;;;2.73;100.00
71145;BME280;58812;47.698;17.726;2023-11-19T08:28:17;100338.37;;;2.81;100.00
71145;BME280;58812;47.698;17.726;2023-11-19T08:30:42;100339.78;;;2.86;100.00
71145;BME280;58812;47.698;17.726;2023-11-19T08:33:09;100338.56;;;2.92;100.00
71145;BME280;58812;47.698;17.726;2023-11-19T08:35:34;100340.03;;;2.96;100.00
71145;BME280;58812;47.698;17.726;2023-11-19T08:38:00;100335.03;;;3.06;100.00
71145;BME280;58812;47.698;17.726;2023-11-19T08:40:26;100332.69;;;3.01;100.00
71145;BME280;58812;47.698;17.726;2023-11-19T08:42:51;100326.81;;;3.10;100.00
71145;BME280;58812;47.698;17.726;2023-11-19T08:45:17;100319.72;;;3.11;100.00
71145;BME280;58812;47.698;17.726;2023-11-19T08:47:42;100327.44;;;3.14;100.00
71145;BME280;58812;47.698;17.726;2023-11-19T08:50:08;100323.16;;;2.99;100.00
71145;BME280;58812;47.698;17.726;2023-11-19T08:52:33;100334.09;;;3.07;100.00
71145;BME280;58812;47.698;17.726;2023-11-19T08:54:59;100340.16;;;3.09;100.00
71145;BME280;58812;47.698;17.726;2023-11-19T08:57:25;100333.91;;;3.10;100.00
71145;BME280;58812;47.698;17.726;2023-11-19T08:59:50;100336.34;;;3.13;100.00
71145;BME280;58812;47.698;17.726;2023-11-19T09:02:15;100336.34;;;3.13;100.00
71145;BME280;58812;47.698;17.726;2023-11-19T09:04:41;100341.06;;;3.08;100.00
71145;BME280;58812;47.698;17.726;2023-11-19T09:07:07;100337.12;;;3.01;100.00
71145;BME280;58812;47.698;17.726;2023-11-19T09:09:34;100341.00;;;3.09;100.00
71145;BME280;58812;47.698;17.726;2023-11-19T09:12:01;100330.31;;;3.11;100.00
71145;BME280;58812;47.698;17.726;2023-11-19T09:14:26;100341.50;;;6.19;100.00
71145;BME280;58812;47.698;17.726;2023-11-19T09:16:52;100337.84;;;6.77;100.00
71145;BME280;58812;47.698;17.726;2023-11-19T09:19:18;100326.72;;;6.72;100.00
71145;BME280;58812;47.698;17.726;2023-11-19T09:21:43;100312.16;;;6.31;100.00
71145;BME280;58812;47.698;17.726;2023-11-19T09:24:09;100310.66;;;5.81;95.16
71145;BME280;58812;47.698;17.726;2023-11-19T09:26:34;100305.28;;;7.62;98.50
71145;BME280;58812;47.698;17.726;2023-11-19T09:29:01;100305.97;;;6.20;92.39
71145;BME280;58812;47.698;17.726;2023-11-19T09:31:27;100311.09;;;6.45;91.84
71145;BME280;58812;47.698;17.726;2023-11-19T09:33:52;100311.16;;;7.44;92.45
71145;BME280;58812;47.698;17.726;2023-11-19T09:36:17;100308.91;;;6.39;88.43
71145;BME280;58812;47.698;17.726;2023-11-19T09:38:44;100298.53;;;7.03;91.88
71145;BME280;58812;47.698;17.726;2023-11-19T09:41:10;100280.28;;;6.65;88.53
71145;BME280;58812;47.698;17.726;2023-11-19T09:43:42;100303.78;;;5.78;95.28
71145;BME280;58812;47.698;17.726;2023-11-19T09:46:12;100289.78;;;6.11;95.15
71145;BME280;58812;47.698;17.726;2023-11-19T09:48:39;100292.34;;;7.57;95.28
71145;BME280;58812;47.698;17.726;2023-11-19T09:51:08;100279.94;;;7.35;91.98
71145;BME280;58812;47.698;17.726;2023-11-19T09:53:34;100285.41;;;7.22;87.65
71145;BME280;58812;47.698;17.726;2023-11-19T09:56:02;100277.19;;;7.26;89.47
71145;BME280;58812;47.698;17.726;2023-11-19T09:58:29;100277.25;;;7.79;88.24
71145;BME280;58812;47.698;17.726;2023-11-19T10:00:55;100273.03;;;8.39;87.58
71145;BME280;58812;47.698;17.726;2023-11-19T10:03:21;100261.94;;;8.22;86.50
71145;BME280;58812;47.698;17.726;2023-11-19T10:05:48;100263.19;;;8.60;83.25
71145;BME280;58812;47.698;17.726;2023-11-19T10:08:14;100252.16;;;8.84;83.56
71145;BME280;58812;47.698;17.726;2023-11-19T10:10:39;100249.34;;;7.62;83.14
71145;BME280;58812;47.698;17.726;2023-11-19T10:13:05;100228.91;;;7.51;88.95
71145;BME280;58812;47.698;17.726;2023-11-19T10:15:36;100216.41;;;7.31;86.92
71145;BME280;58812;47.698;17.726;2023-11-19T10:18:02;100203.28;;;8.22;86.46
71145;BME280;58812;47.698;17.726;2023-11-19T10:20:27;100215.75;;;8.73;85.29
71145;BME280;58812;47.698;17.726;2023-11-19T10:22:56;100211.56;;;7.36;85.31
71145;BME280;58812;47.698;17.726;2023-11-19T10:25:22;100221.03;;;6.74;87.64
71145;BME280;58812;47.698;17.726;2023-11-19T10:27:48;100213.78;;;6.20;89.93
71145;BME280;58812;47.698;17.726;2023-11-19T10:30:20;100204.47;;;6.03;92.76
71145;BME280;58812;47.698;17.726;2023-11-19T10:35:27;100185.22;;;5.42;96.58
71145;BME280;58812;47.698;17.726;2023-11-19T10:37:52;100176.72;;;5.26;96.46
71145;BME280;58812;47.698;17.726;2023-11-19T10:40:18;100180.00;;;5.29;97.68
71145;BME280;58812;47.698;17.726;2023-11-19T10:42:44;100177.38;;;5.05;98.43
71145;BME280;58812;47.698;17.726;2023-11-19T10:45:22;100173.88;;;5.05;98.45
71145;BME280;58812;47.698;17.726;2023-11-19T10:47:51;100171.41;;;5.26;98.27
71145;BME280;58812;47.698;17.726;2023-11-19T10:50:17;100180.78;;;5.19;97.38
71145;BME280;58812;47.698;17.726;2023-11-19T10:52:43;100176.72;;;5.26;97.35
71145;BME280;58812;47.698;17.726;2023-11-19T10:55:11;100189.56;;;5.43;96.72
71145;BME280;58812;47.698;17.726;2023-11-19T10:57:36;100175.72;;;5.51;96.50
71145;BME280;58812;47.698;17.726;2023-11-19T11:00:02;100177.34;;;5.65;95.97
71145;BME280;58812;47.698;17.726;2023-11-19T11:02:39;100174.19;;;5.59;94.96
71145;BME280;58812;47.698;17.726;2023-11-19T11:05:06;100168.66;;;5.74;95.58
71145;BME280;58812;47.698;17.726;2023-11-19T11:07:33;100153.28;;;5.55;90.37
71145;BME280;58812;47.698;17.726;2023-11-19T11:10:00;100162.44;;;5.51;88.45
71145;BME280;58812;47.698;17.726;2023-11-19T11:12:27;100161.88;;;5.58;84.28
71145;BME280;58812;47.698;17.726;2023-11-19T11:14:54;100150.62;;;5.55;81.36
71145;BME280;58812;47.698;17.726;2023-11-19T11:17:24;100147.62;;;5.59;81.84
71145;BME280;58812;47.698;17.726;2023-11-19T11:19:53;100141.84;;;5.66;80.86
71145;BME280;58812;47.698;17.726;2023-11-19T11:22:20;100141.22;;;5.62;79.56
71145;BME280;58812;47.698;17.726;2023-11-19T11:27:46;100130.19;;;5.44;80.59
71145;BME280;58812;47.698;17.726;2023-11-19T11:30:32;100115.03;;;5.46;81.71
71145;BME280;58812;47.698;17.726;2023-11-19T11:33:40;100128.06;;;5.60;82.20
71145;BME280;58812;47.698;17.726;2023-11-19T11:36:21;100123.25;;;5.66;83.19
71145;BME280;58812;47.698;17.726;2023-11-19T11:38:48;100120.69;;;5.53;80.30
71145;BME280;58812;47.698;17.726;2023-11-19T11:41:22;100111.63;;;5.44;79.04
71145;BME280;58812;47.698;17.726;2023-11-19T11:43:54;100113.31;;;5.45;82.17
71145;BME280;58812;47.698;17.726;2023-11-19T11:49:03;100095.69;;;5.44;79.20
71145;BME280;58812;47.698;17.726;2023-11-19T11:57:12;100106.38;;;5.78;77.91
71145;BME280;58812;47.698;17.726;2023-11-19T12:02:08;100100.91;;;5.79;78.42
71145;BME280;58812;47.698;17.726;2023-11-19T12:04:34;100092.25;;;5.77;77.17
71145;BME280;58812;47.698;17.726;2023-11-19T12:07:07;100083.91;;;5.82;79.44
71145;BME280;58812;47.698;17.726;2023-11-19T12:09:36;100088.75;;;5.88;78.97
71145;BME280;58812;47.698;17.726;2023-11-19T12:19:59;100079.09;;;5.76;79.43
71145;BME280;58812;47.698;17.726;2023-11-19T12:22:25;100068.22;;;5.79;78.93
71145;BME280;58812;47.698;17.726;2023-11-19T12:24:52;100063.16;;;5.76;79.42
71145;BME280;58812;47.698;17.726;2023-11-19T12:27:19;100071.56;;;5.81;78.76
71145;BME280;58812;47.698;17.726;2023-11-19T12:29:47;100075.19;;;5.80;79.03
71145;BME280;58812;47.698;17.726;2023-11-19T12:32:12;100073.28;;;5.82;78.86
71145;BME280;58812;47.698;17.726;2023-11-19T12:34:38;100066.53;;;5.78;79.67
71145;BME280;58812;47.698;17.726;2023-11-19T12:37:04;100062.66;;;5.82;79.97
71145;BME280;58812;47.698;17.726;2023-11-19T12:39:30;100054.22;;;5.77;79.47
71145;BME280;58812;47.698;17.726;2023-11-19T12:41:56;100055.91;;;5.78;78.79
71145;BME280;58812;47.698;17.726;2023-11-19T12:44:24;100056.12;;;5.75;79.81
71145;BME280;58812;47.698;17.726;2023-11-19T12:47:06;100048.91;;;5.77;80.92
71145;BME280;58812;47.698;17.726;2023-11-19T12:49:35;100042.62;;;5.78;81.81
71145;BME280;58812;47.698;17.726;2023-11-19T12:52:00;100041.50;;;5.69;80.19
71145;BME280;58812;47.698;17.726;2023-11-19T12:54:35;100034.41;;;5.58;80.76
71145;BME280;58812;47.698;17.726;2023-11-19T12:57:02;100040.31;;;5.62;80.45
71145;BME280;58812;47.698;17.726;2023-11-19T12:59:27;100038.28;;;5.66;82.69
71145;BME280;58812;47.698;17.726;2023-11-19T13:01:59;100034.41;;;5.58;82.78
71145;BME280;58812;47.698;17.726;2023-11-19T13:04:29;100024.16;;;5.65;82.47